sensor_id;sensor_type;location;lat;lon;timestamp;temperature;humidity
38263;DHT22;24054;50.128;19.730;2023-04-25T00:00:11;21.90;54.80
38263;DHT22;24054;50.128;19.730;2023-04-25T00:02:38;21.90;54.80
38263;DHT22;24054;50.128;19.730;2023-04-25T00:05:06;21.90;54.80
38263;DHT22;24054;50.128;19.730;2023-04-25T00:07:34;21.90;54.80
38263;DHT22;24054;50.128;19.730;2023-04-25T00:10:07;21.90;54.80
38263;DHT22;24054;50.128;19.730;2023-04-25T00:12:34;21.90;54.80
38263;DHT22;24054;50.128;19.730;2023-04-25T00:15:01;21.90;54.70
38263;DHT22;24054;50.128;19.730;2023-04-25T00:17:29;21.90;54.80
38263;DHT22;24054;50.128;19.730;2023-04-25T00:19:56;21.90;54.70
38263;DHT22;24054;50.128;19.730;2023-04-25T00:22:26;21.80;54.70
38263;DHT22;24054;50.128;19.730;2023-04-25T00:24:53;21.90;54.70
38263;DHT22;24054;50.128;19.730;2023-04-25T00:27:24;21.90;54.70
38263;DHT22;24054;50.128;19.730;2023-04-25T00:29:51;21.90;54.70
38263;DHT22;24054;50.128;19.730;2023-04-25T00:32:18;21.80;54.70
38263;DHT22;24054;50.128;19.730;2023-04-25T00:34:45;21.80;54.70
38263;DHT22;24054;50.128;19.730;2023-04-25T00:37:12;21.80;54.70
38263;DHT22;24054;50.128;19.730;2023-04-25T00:39:39;21.90;54.80
38263;DHT22;24054;50.128;19.730;2023-04-25T00:42:06;21.80;54.70
38263;DHT22;24054;50.128;19.730;2023-04-25T00:44:35;21.80;54.70
38263;DHT22;24054;50.128;19.730;2023-04-25T00:47:02;21.80;54.70
38263;DHT22;24054;50.128;19.730;2023-04-25T00:49:30;21.80;54.60
38263;DHT22;24054;50.128;19.730;2023-04-25T00:51:57;21.80;54.70
38263;DHT22;24054;50.128;19.730;2023-04-25T00:54:24;21.80;54.60
38263;DHT22;24054;50.128;19.730;2023-04-25T00:56:52;21.80;54.70
38263;DHT22;24054;50.128;19.730;2023-04-25T00:59:19;21.80;54.60
38263;DHT22;24054;50.128;19.730;2023-04-25T01:01:48;21.80;54.70
38263;DHT22;24054;50.128;19.730;2023-04-25T01:04:16;21.80;54.70
38263;DHT22;24054;50.128;19.730;2023-04-25T01:06:43;21.80;54.60
38263;DHT22;24054;50.128;19.730;2023-04-25T01:09:10;21.80;54.60
38263;DHT22;24054;50.128;19.730;2023-04-25T01:11:38;21.80;54.60
38263;DHT22;24054;50.128;19.730;2023-04-25T01:14:06;21.80;54.60
38263;DHT22;24054;50.128;19.730;2023-04-25T01:16:33;21.80;54.60
38263;DHT22;24054;50.128;19.730;2023-04-25T01:19:01;21.80;54.60
38263;DHT22;24054;50.128;19.730;2023-04-25T01:21:32;21.80;54.60
38263;DHT22;24054;50.128;19.730;2023-04-25T01:23:59;21.80;54.60
38263;DHT22;24054;50.128;19.730;2023-04-25T01:26:26;21.70;55.10
38263;DHT22;24054;50.128;19.730;2023-04-25T01:28:53;21.70;54.50
38263;DHT22;24054;50.128;19.730;2023-04-25T01:31:20;21.70;54.50
38263;DHT22;24054;50.128;19.730;2023-04-25T01:33:48;21.70;54.60
38263;DHT22;24054;50.128;19.730;2023-04-25T01:36:15;21.70;54.50
38263;DHT22;24054;50.128;19.730;2023-04-25T01:38:43;21.70;54.60
38263;DHT22;24054;50.128;19.730;2023-04-25T01:41:13;21.70;54.50
38263;DHT22;24054;50.128;19.730;2023-04-25T01:43:40;21.70;54.60
38263;DHT22;24054;50.128;19.730;2023-04-25T01:46:07;21.70;54.50
38263;DHT22;24054;50.128;19.730;2023-04-25T01:48:34;21.70;54.50
38263;DHT22;24054;50.128;19.730;2023-04-25T01:51:01;21.70;54.60
38263;DHT22;24054;50.128;19.730;2023-04-25T01:53:28;21.70;54.50
38263;DHT22;24054;50.128;19.730;2023-04-25T01:55:56;21.70;54.60
38263;DHT22;24054;50.128;19.730;2023-04-25T01:58:23;21.70;54.60
38263;DHT22;24054;50.128;19.730;2023-04-25T02:00:50;21.70;54.60
38263;DHT22;24054;50.128;19.730;2023-04-25T02:03:17;21.70;54.60
38263;DHT22;24054;50.128;19.730;2023-04-25T02:05:44;21.70;54.60
38263;DHT22;24054;50.128;19.730;2023-04-25T02:08:11;21.70;54.60
38263;DHT22;24054;50.128;19.730;2023-04-25T02:10:38;21.70;54.60
38263;DHT22;24054;50.128;19.730;2023-04-25T02:13:06;21.70;54.60
38263;DHT22;24054;50.128;19.730;2023-04-25T02:15:33;21.70;54.60
38263;DHT22;24054;50.128;19.730;2023-04-25T02:18:00;21.70;54.60
38263;DHT22;24054;50.128;19.730;2023-04-25T02:20:30;21.60;54.50
38263;DHT22;24054;50.128;19.730;2023-04-25T02:22:57;21.70;54.60
38263;DHT22;24054;50.128;19.730;2023-04-25T02:25:24;21.60;54.50
38263;DHT22;24054;50.128;19.730;2023-04-25T02:27:51;21.60;54.60
38263;DHT22;24054;50.128;19.730;2023-04-25T02:30:19;21.60;54.60
38263;DHT22;24054;50.128;19.730;2023-04-25T02:32:46;21.60;54.60
38263;DHT22;24054;50.128;19.730;2023-04-25T02:35:13;21.60;54.60
38263;DHT22;24054;50.128;19.730;2023-04-25T02:37:41;21.70;54.60
38263;DHT22;24054;50.128;19.730;2023-04-25T02:40:09;21.60;54.60
38263;DHT22;24054;50.128;19.730;2023-04-25T02:42:36;21.60;54.60
38263;DHT22;24054;50.128;19.730;2023-04-25T02:45:04;21.60;54.60
38263;DHT22;24054;50.128;19.730;2023-04-25T02:47:32;21.60;54.60
38263;DHT22;24054;50.128;19.730;2023-04-25T02:49:59;21.60;54.60
38263;DHT22;24054;50.128;19.730;2023-04-25T02:52:26;21.60;54.60
38263;DHT22;24054;50.128;19.730;2023-04-25T02:54:53;21.60;54.60
38263;DHT22;24054;50.128;19.730;2023-04-25T02:57:20;21.60;54.60
38263;DHT22;24054;50.128;19.730;2023-04-25T02:59:47;21.60;54.60
38263;DHT22;24054;50.128;19.730;2023-04-25T03:02:14;21.60;54.60
38263;DHT22;24054;50.128;19.730;2023-04-25T03:04:42;21.60;54.60
38263;DHT22;24054;50.128;19.730;2023-04-25T03:07:10;21.60;54.60
38263;DHT22;24054;50.128;19.730;2023-04-25T03:09:37;21.60;54.60
38263;DHT22;24054;50.128;19.730;2023-04-25T03:12:04;21.60;54.60
38263;DHT22;24054;50.128;19.730;2023-04-25T03:14:31;21.60;54.60
38263;DHT22;24054;50.128;19.730;2023-04-25T03:16:58;21.50;54.60
38263;DHT22;24054;50.128;19.730;2023-04-25T03:19:25;21.50;54.60
38263;DHT22;24054;50.128;19.730;2023-04-25T03:21:53;21.50;54.60
38263;DHT22;24054;50.128;19.730;2023-04-25T03:24:21;21.60;54.70
38263;DHT22;24054;50.128;19.730;2023-04-25T03:26:47;21.50;54.60
38263;DHT22;24054;50.128;19.730;2023-04-25T03:29:14;21.60;54.70
38263;DHT22;24054;50.128;19.730;2023-04-25T03:31:41;21.60;54.60
38263;DHT22;24054;50.128;19.730;2023-04-25T03:34:08;21.60;54.60
38263;DHT22;24054;50.128;19.730;2023-04-25T03:36:37;21.50;54.60
38263;DHT22;24054;50.128;19.730;2023-04-25T03:39:05;21.50;54.60
38263;DHT22;24054;50.128;19.730;2023-04-25T03:41:32;21.50;54.60
38263;DHT22;24054;50.128;19.730;2023-04-25T03:43:59;21.50;54.60
38263;DHT22;24054;50.128;19.730;2023-04-25T03:46:26;21.50;54.60
38263;DHT22;24054;50.128;19.730;2023-04-25T03:48:53;21.50;54.60
38263;DHT22;24054;50.128;19.730;2023-04-25T03:51:20;21.50;54.50
38263;DHT22;24054;50.128;19.730;2023-04-25T03:53:47;21.50;54.50
38263;DHT22;24054;50.128;19.730;2023-04-25T03:56:16;21.50;54.60
38263;DHT22;24054;50.128;19.730;2023-04-25T03:58:43;21.50;54.60
38263;DHT22;24054;50.128;19.730;2023-04-25T04:01:10;21.50;54.60
38263;DHT22;24054;50.128;19.730;2023-04-25T04:03:37;21.50;54.60
38263;DHT22;24054;50.128;19.730;2023-04-25T04:06:06;21.50;54.60
38263;DHT22;24054;50.128;19.730;2023-04-25T04:08:34;21.50;54.60
38263;DHT22;24054;50.128;19.730;2023-04-25T04:11:01;21.50;54.60
38263;DHT22;24054;50.128;19.730;2023-04-25T04:13:30;21.50;54.60
38263;DHT22;24054;50.128;19.730;2023-04-25T04:15:57;21.50;54.60
38263;DHT22;24054;50.128;19.730;2023-04-25T04:18:24;21.50;54.60
38263;DHT22;24054;50.128;19.730;2023-04-25T04:20:51;21.50;54.60
38263;DHT22;24054;50.128;19.730;2023-04-25T04:23:19;21.50;54.60
38263;DHT22;24054;50.128;19.730;2023-04-25T04:25:46;21.50;54.60
38263;DHT22;24054;50.128;19.730;2023-04-25T04:28:13;21.50;54.60
38263;DHT22;24054;50.128;19.730;2023-04-25T04:30:43;21.50;54.60
38263;DHT22;24054;50.128;19.730;2023-04-25T04:33:11;21.50;54.50
38263;DHT22;24054;50.128;19.730;2023-04-25T04:35:39;21.50;54.60
38263;DHT22;24054;50.128;19.730;2023-04-25T04:38:07;21.50;54.60
38263;DHT22;24054;50.128;19.730;2023-04-25T04:40:34;21.40;54.50
38263;DHT22;24054;50.128;19.730;2023-04-25T04:43:02;21.50;54.60
38263;DHT22;24054;50.128;19.730;2023-04-25T04:45:29;21.50;54.60
38263;DHT22;24054;50.128;19.730;2023-04-25T04:47:57;21.50;54.50
38263;DHT22;24054;50.128;19.730;2023-04-25T04:50:25;21.50;54.50
38263;DHT22;24054;50.128;19.730;2023-04-25T04:52:52;21.50;54.50
38263;DHT22;24054;50.128;19.730;2023-04-25T04:55:20;21.50;54.60
38263;DHT22;24054;50.128;19.730;2023-04-25T04:57:47;21.40;54.50
38263;DHT22;24054;50.128;19.730;2023-04-25T05:00:15;21.40;54.50
38263;DHT22;24054;50.128;19.730;2023-04-25T05:02:42;21.50;54.60
38263;DHT22;24054;50.128;19.730;2023-04-25T05:05:10;21.40;54.50
38263;DHT22;24054;50.128;19.730;2023-04-25T05:07:37;21.40;54.50
38263;DHT22;24054;50.128;19.730;2023-04-25T05:10:08;21.40;54.40
38263;DHT22;24054;50.128;19.730;2023-04-25T05:12:35;21.40;54.40
38263;DHT22;24054;50.128;19.730;2023-04-25T05:15:06;21.40;54.40
38263;DHT22;24054;50.128;19.730;2023-04-25T05:17:33;21.40;54.40
38263;DHT22;24054;50.128;19.730;2023-04-25T05:20:00;21.40;54.70
38263;DHT22;24054;50.128;19.730;2023-04-25T05:22:28;21.40;55.00
38263;DHT22;24054;50.128;19.730;2023-04-25T05:24:55;21.50;55.20
38263;DHT22;24054;50.128;19.730;2023-04-25T05:27:24;21.50;55.30
38263;DHT22;24054;50.128;19.730;2023-04-25T05:29:51;21.50;55.30
38263;DHT22;24054;50.128;19.730;2023-04-25T05:32:18;21.50;55.40
38263;DHT22;24054;50.128;19.730;2023-04-25T05:34:45;21.50;55.60
38263;DHT22;24054;50.128;19.730;2023-04-25T05:37:12;21.60;55.60
38263;DHT22;24054;50.128;19.730;2023-04-25T05:39:40;21.60;55.50
38263;DHT22;24054;50.128;19.730;2023-04-25T05:42:07;21.60;55.50
38263;DHT22;24054;50.128;19.730;2023-04-25T05:44:34;21.60;55.40
38263;DHT22;24054;50.128;19.730;2023-04-25T05:47:01;21.70;55.50
38263;DHT22;24054;50.128;19.730;2023-04-25T05:49:30;21.70;55.60
38263;DHT22;24054;50.128;19.730;2023-04-25T05:51:57;21.70;55.60
38263;DHT22;24054;50.128;19.730;2023-04-25T05:54:23;21.70;55.60
38263;DHT22;24054;50.128;19.730;2023-04-25T05:56:56;21.70;55.50
38263;DHT22;24054;50.128;19.730;2023-04-25T05:59:23;21.70;55.50
38263;DHT22;24054;50.128;19.730;2023-04-25T06:01:50;21.80;55.50
38263;DHT22;24054;50.128;19.730;2023-04-25T06:04:18;21.80;55.50
38263;DHT22;24054;50.128;19.730;2023-04-25T06:06:45;21.80;55.50
38263;DHT22;24054;50.128;19.730;2023-04-25T06:09:12;21.80;55.50
38263;DHT22;24054;50.128;19.730;2023-04-25T06:11:39;21.90;55.40
38263;DHT22;24054;50.128;19.730;2023-04-25T06:14:07;21.90;55.40
38263;DHT22;24054;50.128;19.730;2023-04-25T06:16:34;21.90;55.40
38263;DHT22;24054;50.128;19.730;2023-04-25T06:19:01;21.90;55.40
38263;DHT22;24054;50.128;19.730;2023-04-25T06:21:28;21.90;55.30
38263;DHT22;24054;50.128;19.730;2023-04-25T06:23:55;22.00;55.40
38263;DHT22;24054;50.128;19.730;2023-04-25T06:26:22;22.00;55.50
38263;DHT22;24054;50.128;19.730;2023-04-25T06:28:49;22.00;55.40
38263;DHT22;24054;50.128;19.730;2023-04-25T06:31:17;22.00;55.40
38263;DHT22;24054;50.128;19.730;2023-04-25T06:33:45;22.00;55.50
38263;DHT22;24054;50.128;19.730;2023-04-25T06:36:13;22.00;55.50
38263;DHT22;24054;50.128;19.730;2023-04-25T06:38:40;22.10;55.40
38263;DHT22;24054;50.128;19.730;2023-04-25T06:41:07;22.10;55.40
38263;DHT22;24054;50.128;19.730;2023-04-25T06:43:34;22.10;55.20
38263;DHT22;24054;50.128;19.730;2023-04-25T06:46:01;22.10;55.00
38263;DHT22;24054;50.128;19.730;2023-04-25T06:48:30;22.10;55.00
38263;DHT22;24054;50.128;19.730;2023-04-25T06:50:57;22.10;55.10
38263;DHT22;24054;50.128;19.730;2023-04-25T06:53:24;22.10;55.30
38263;DHT22;24054;50.128;19.730;2023-04-25T06:55:51;22.10;55.40
38263;DHT22;24054;50.128;19.730;2023-04-25T06:58:18;22.10;55.40
38263;DHT22;24054;50.128;19.730;2023-04-25T07:00:45;22.10;55.30
38263;DHT22;24054;50.128;19.730;2023-04-25T07:03:12;22.10;55.30
38263;DHT22;24054;50.128;19.730;2023-04-25T07:05:40;22.10;55.30
38263;DHT22;24054;50.128;19.730;2023-04-25T07:08:08;22.10;55.20
38263;DHT22;24054;50.128;19.730;2023-04-25T07:10:35;22.10;55.30
38263;DHT22;24054;50.128;19.730;2023-04-25T07:13:02;22.10;55.60
38263;DHT22;24054;50.128;19.730;2023-04-25T07:15:29;22.10;55.60
38263;DHT22;24054;50.128;19.730;2023-04-25T07:17:56;22.10;55.80
38263;DHT22;24054;50.128;19.730;2023-04-25T07:20:23;22.10;56.00
38263;DHT22;24054;50.128;19.730;2023-04-25T07:22:52;22.10;56.10
38263;DHT22;24054;50.128;19.730;2023-04-25T07:25:19;22.10;56.20
38263;DHT22;24054;50.128;19.730;2023-04-25T07:27:46;22.20;56.40
38263;DHT22;24054;50.128;19.730;2023-04-25T07:30:13;22.20;56.10
38263;DHT22;24054;50.128;19.730;2023-04-25T07:32:40;22.20;56.30
38263;DHT22;24054;50.128;19.730;2023-04-25T07:35:08;22.20;56.40
38263;DHT22;24054;50.128;19.730;2023-04-25T07:37:38;22.20;56.40
38263;DHT22;24054;50.128;19.730;2023-04-25T07:40:08;22.20;56.40
38263;DHT22;24054;50.128;19.730;2023-04-25T07:42:35;22.20;56.50
38263;DHT22;24054;50.128;19.730;2023-04-25T07:45:03;22.30;56.70
38263;DHT22;24054;50.128;19.730;2023-04-25T07:47:30;22.30;56.90
38263;DHT22;24054;50.128;19.730;2023-04-25T07:49:57;22.30;56.80
38263;DHT22;24054;50.128;19.730;2023-04-25T07:52:24;22.30;56.70
38263;DHT22;24054;50.128;19.730;2023-04-25T07:54:51;22.30;56.50
38263;DHT22;24054;50.128;19.730;2023-04-25T07:57:20;22.30;56.60
38263;DHT22;24054;50.128;19.730;2023-04-25T07:59:47;22.30;56.50
38263;DHT22;24054;50.128;19.730;2023-04-25T08:02:14;22.30;56.60
38263;DHT22;24054;50.128;19.730;2023-04-25T08:04:43;22.30;56.60
38263;DHT22;24054;50.128;19.730;2023-04-25T08:07:11;22.30;56.60
38263;DHT22;24054;50.128;19.730;2023-04-25T08:09:38;22.30;56.70
38263;DHT22;24054;50.128;19.730;2023-04-25T08:12:05;22.30;56.80
38263;DHT22;24054;50.128;19.730;2023-04-25T08:14:34;22.30;56.80
38263;DHT22;24054;50.128;19.730;2023-04-25T08:17:03;22.30;56.80
38263;DHT22;24054;50.128;19.730;2023-04-25T08:19:30;22.30;57.00
38263;DHT22;24054;50.128;19.730;2023-04-25T08:21:57;22.30;56.80
38263;DHT22;24054;50.128;19.730;2023-04-25T08:24:25;22.30;56.80
38263;DHT22;24054;50.128;19.730;2023-04-25T08:26:52;22.30;56.80
38263;DHT22;24054;50.128;19.730;2023-04-25T08:29:19;22.30;56.90
38263;DHT22;24054;50.128;19.730;2023-04-25T08:31:50;22.40;57.10
38263;DHT22;24054;50.128;19.730;2023-04-25T08:34:18;22.40;57.20
38263;DHT22;24054;50.128;19.730;2023-04-25T08:36:45;22.40;57.10
38263;DHT22;24054;50.128;19.730;2023-04-25T08:39:12;22.40;57.10
38263;DHT22;24054;50.128;19.730;2023-04-25T08:41:40;22.40;57.20
38263;DHT22;24054;50.128;19.730;2023-04-25T08:44:10;22.40;57.20
38263;DHT22;24054;50.128;19.730;2023-04-25T08:46:38;22.40;57.40
38263;DHT22;24054;50.128;19.730;2023-04-25T08:49:07;22.40;57.40
38263;DHT22;24054;50.128;19.730;2023-04-25T08:51:36;22.40;57.50
38263;DHT22;24054;50.128;19.730;2023-04-25T08:54:09;22.40;57.40
38263;DHT22;24054;50.128;19.730;2023-04-25T08:56:38;22.40;57.60
38263;DHT22;24054;50.128;19.730;2023-04-25T08:59:05;22.40;57.60
38263;DHT22;24054;50.128;19.730;2023-04-25T09:01:34;22.40;57.30
38263;DHT22;24054;50.128;19.730;2023-04-25T09:04:03;22.50;57.00
38263;DHT22;24054;50.128;19.730;2023-04-25T09:06:31;22.40;56.90
38263;DHT22;24054;50.128;19.730;2023-04-25T09:09:02;22.40;56.90
38263;DHT22;24054;50.128;19.730;2023-04-25T09:11:30;22.40;56.90
38263;DHT22;24054;50.128;19.730;2023-04-25T09:14:13;22.40;56.80
38263;DHT22;24054;50.128;19.730;2023-04-25T09:17:00;22.40;56.80
38263;DHT22;24054;50.128;19.730;2023-04-25T09:19:29;22.40;56.80
38263;DHT22;24054;50.128;19.730;2023-04-25T09:21:58;22.40;56.80
38263;DHT22;24054;50.128;19.730;2023-04-25T09:24:33;22.40;56.80
38263;DHT22;24054;50.128;19.730;2023-04-25T09:27:02;22.40;56.90
38263;DHT22;24054;50.128;19.730;2023-04-25T09:29:30;22.40;56.80
38263;DHT22;24054;50.128;19.730;2023-04-25T09:32:17;22.40;56.80
38263;DHT22;24054;50.128;19.730;2023-04-25T09:34:46;22.40;56.90
38263;DHT22;24054;50.128;19.730;2023-04-25T09:37:19;22.40;57.00
38263;DHT22;24054;50.128;19.730;2023-04-25T09:39:48;22.50;57.00
38263;DHT22;24054;50.128;19.730;2023-04-25T09:42:16;22.50;57.00
38263;DHT22;24054;50.128;19.730;2023-04-25T09:44:45;22.50;57.10
38263;DHT22;24054;50.128;19.730;2023-04-25T09:47:13;22.50;57.10
38263;DHT22;24054;50.128;19.730;2023-04-25T09:49:41;22.50;57.20
38263;DHT22;24054;50.128;19.730;2023-04-25T09:52:11;22.50;57.10
38263;DHT22;24054;50.128;19.730;2023-04-25T09:54:41;22.50;57.40
38263;DHT22;24054;50.128;19.730;2023-04-25T09:57:11;22.50;57.20
38263;DHT22;24054;50.128;19.730;2023-04-25T09:59:42;22.50;57.20
38263;DHT22;24054;50.128;19.730;2023-04-25T10:02:11;22.50;57.20
38263;DHT22;24054;50.128;19.730;2023-04-25T10:04:38;22.50;57.20
38263;DHT22;24054;50.128;19.730;2023-04-25T10:07:06;22.50;57.20
38263;DHT22;24054;50.128;19.730;2023-04-25T10:09:36;22.50;57.20
38263;DHT22;24054;50.128;19.730;2023-04-25T10:12:06;22.50;57.30
38263;DHT22;24054;50.128;19.730;2023-04-25T10:14:35;22.50;57.40
38263;DHT22;24054;50.128;19.730;2023-04-25T10:17:02;22.50;57.50
38263;DHT22;24054;50.128;19.730;2023-04-25T10:19:30;22.50;57.40
38263;DHT22;24054;50.128;19.730;2023-04-25T10:22:04;22.50;57.60
38263;DHT22;24054;50.128;19.730;2023-04-25T10:24:32;22.50;57.70
38263;DHT22;24054;50.128;19.730;2023-04-25T10:27:00;22.60;57.70
38263;DHT22;24054;50.128;19.730;2023-04-25T10:29:29;22.60;58.00
38263;DHT22;24054;50.128;19.730;2023-04-25T10:31:57;22.50;57.90
38263;DHT22;24054;50.128;19.730;2023-04-25T10:34:25;22.60;57.90
38263;DHT22;24054;50.128;19.730;2023-04-25T10:37:05;22.60;58.00
38263;DHT22;24054;50.128;19.730;2023-04-25T10:39:35;22.60;57.90
38263;DHT22;24054;50.128;19.730;2023-04-25T10:42:06;22.60;57.80
38263;DHT22;24054;50.128;19.730;2023-04-25T10:44:37;22.60;57.90
38263;DHT22;24054;50.128;19.730;2023-04-25T10:47:06;22.60;57.90
38263;DHT22;24054;50.128;19.730;2023-04-25T10:49:34;22.60;58.10
38263;DHT22;24054;50.128;19.730;2023-04-25T10:52:17;22.60;58.20
38263;DHT22;24054;50.128;19.730;2023-04-25T10:54:49;22.60;57.90
38263;DHT22;24054;50.128;19.730;2023-04-25T10:57:28;22.60;58.00
38263;DHT22;24054;50.128;19.730;2023-04-25T11:00:00;22.60;58.20
38263;DHT22;24054;50.128;19.730;2023-04-25T11:02:30;22.60;58.20
38263;DHT22;24054;50.128;19.730;2023-04-25T11:04:59;22.60;58.30
38263;DHT22;24054;50.128;19.730;2023-04-25T11:07:28;22.60;58.40
38263;DHT22;24054;50.128;19.730;2023-04-25T11:10:01;22.70;58.20
38263;DHT22;24054;50.128;19.730;2023-04-25T11:12:30;22.70;58.50
38263;DHT22;24054;50.128;19.730;2023-04-25T11:15:06;22.70;58.40
38263;DHT22;24054;50.128;19.730;2023-04-25T11:17:34;22.70;58.70
38263;DHT22;24054;50.128;19.730;2023-04-25T11:20:08;22.70;58.70
38263;DHT22;24054;50.128;19.730;2023-04-25T11:22:37;22.70;58.60
38263;DHT22;24054;50.128;19.730;2023-04-25T11:25:06;22.70;58.80
38263;DHT22;24054;50.128;19.730;2023-04-25T11:27:34;22.70;58.70
38263;DHT22;24054;50.128;19.730;2023-04-25T11:30:13;22.70;58.60
38263;DHT22;24054;50.128;19.730;2023-04-25T11:32:41;22.70;58.50
38263;DHT22;24054;50.128;19.730;2023-04-25T11:35:08;22.70;58.60
38263;DHT22;24054;50.128;19.730;2023-04-25T11:37:35;22.70;58.60
38263;DHT22;24054;50.128;19.730;2023-04-25T11:40:03;22.60;58.60
38263;DHT22;24054;50.128;19.730;2023-04-25T11:42:32;22.60;58.60
38263;DHT22;24054;50.128;19.730;2023-04-25T11:44:59;22.60;59.20
38263;DHT22;24054;50.128;19.730;2023-04-25T11:47:31;22.60;58.70
38263;DHT22;24054;50.128;19.730;2023-04-25T11:49:58;22.60;59.00
38263;DHT22;24054;50.128;19.730;2023-04-25T11:52:36;22.60;58.80
38263;DHT22;24054;50.128;19.730;2023-04-25T11:55:08;22.50;58.70
38263;DHT22;24054;50.128;19.730;2023-04-25T11:57:36;22.50;58.80
38263;DHT22;24054;50.128;19.730;2023-04-25T12:00:09;22.50;58.80
38263;DHT22;24054;50.128;19.730;2023-04-25T12:02:40;22.50;59.10
38263;DHT22;24054;50.128;19.730;2023-04-25T12:05:08;22.50;58.90
38263;DHT22;24054;50.128;19.730;2023-04-25T12:07:35;22.50;58.90
38263;DHT22;24054;50.128;19.730;2023-04-25T12:10:06;22.50;59.00
38263;DHT22;24054;50.128;19.730;2023-04-25T12:12:34;22.50;58.90
38263;DHT22;24054;50.128;19.730;2023-04-25T12:15:11;22.50;59.00
38263;DHT22;24054;50.128;19.730;2023-04-25T12:17:44;22.50;59.00
38263;DHT22;24054;50.128;19.730;2023-04-25T12:20:15;22.40;59.10
38263;DHT22;24054;50.128;19.730;2023-04-25T12:22:44;22.50;59.10
38263;DHT22;24054;50.128;19.730;2023-04-25T12:25:12;22.40;59.10
38263;DHT22;24054;50.128;19.730;2023-04-25T12:27:40;22.40;59.20
38263;DHT22;24054;50.128;19.730;2023-04-25T12:30:09;22.40;59.40
38263;DHT22;24054;50.128;19.730;2023-04-25T12:32:37;22.40;60.10
38263;DHT22;24054;50.128;19.730;2023-04-25T12:35:06;22.40;59.60
38263;DHT22;24054;50.128;19.730;2023-04-25T12:37:34;22.40;59.40
38263;DHT22;24054;50.128;19.730;2023-04-25T12:40:01;22.40;59.50
38263;DHT22;24054;50.128;19.730;2023-04-25T12:42:29;22.40;59.40
38263;DHT22;24054;50.128;19.730;2023-04-25T12:44:56;22.40;59.20
38263;DHT22;24054;50.128;19.730;2023-04-25T12:47:23;22.40;59.40
38263;DHT22;24054;50.128;19.730;2023-04-25T12:49:50;22.40;59.30
38263;DHT22;24054;50.128;19.730;2023-04-25T12:52:18;22.40;59.30
38263;DHT22;24054;50.128;19.730;2023-04-25T12:54:45;22.40;59.30
38263;DHT22;24054;50.128;19.730;2023-04-25T12:57:12;22.30;59.20
38263;DHT22;24054;50.128;19.730;2023-04-25T12:59:39;22.40;59.20
38263;DHT22;24054;50.128;19.730;2023-04-25T13:02:06;22.30;59.20
38263;DHT22;24054;50.128;19.730;2023-04-25T13:04:34;22.30;59.20
38263;DHT22;24054;50.128;19.730;2023-04-25T13:07:07;22.30;59.10
38263;DHT22;24054;50.128;19.730;2023-04-25T13:09:37;22.30;59.10
38263;DHT22;24054;50.128;19.730;2023-04-25T13:12:04;22.30;59.00
38263;DHT22;24054;50.128;19.730;2023-04-25T13:14:32;22.30;59.00
38263;DHT22;24054;50.128;19.730;2023-04-25T13:16:59;22.30;58.90
38263;DHT22;24054;50.128;19.730;2023-04-25T13:19:27;22.20;59.10
38263;DHT22;24054;50.128;19.730;2023-04-25T13:21:55;22.30;58.90
38263;DHT22;24054;50.128;19.730;2023-04-25T13:24:24;22.20;58.70
38263;DHT22;24054;50.128;19.730;2023-04-25T13:26:53;22.20;58.80
38263;DHT22;24054;50.128;19.730;2023-04-25T13:29:20;22.20;58.70
38263;DHT22;24054;50.128;19.730;2023-04-25T13:31:47;22.20;58.70
38263;DHT22;24054;50.128;19.730;2023-04-25T13:34:14;22.20;58.60
38263;DHT22;24054;50.128;19.730;2023-04-25T13:36:41;22.20;58.10
38263;DHT22;24054;50.128;19.730;2023-04-25T13:39:09;22.20;58.70
38263;DHT22;24054;50.128;19.730;2023-04-25T13:41:37;22.20;57.80
38263;DHT22;24054;50.128;19.730;2023-04-25T13:44:05;22.20;57.90
38263;DHT22;24054;50.128;19.730;2023-04-25T13:46:32;22.10;57.80
38263;DHT22;24054;50.128;19.730;2023-04-25T13:49:00;22.10;57.80
38263;DHT22;24054;50.128;19.730;2023-04-25T13:51:27;22.10;57.70
38263;DHT22;24054;50.128;19.730;2023-04-25T13:53:54;22.10;57.80
38263;DHT22;24054;50.128;19.730;2023-04-25T13:56:22;22.10;57.80
38263;DHT22;24054;50.128;19.730;2023-04-25T13:58:50;22.10;57.70
38263;DHT22;24054;50.128;19.730;2023-04-25T14:01:19;22.10;57.70
38263;DHT22;24054;50.128;19.730;2023-04-25T14:03:47;22.10;57.70
38263;DHT22;24054;50.128;19.730;2023-04-25T14:06:14;22.10;57.80
38263;DHT22;24054;50.128;19.730;2023-04-25T14:08:48;22.10;57.80
38263;DHT22;24054;50.128;19.730;2023-04-25T14:11:17;22.10;57.90
38263;DHT22;24054;50.128;19.730;2023-04-25T14:13:45;22.10;57.80
38263;DHT22;24054;50.128;19.730;2023-04-25T14:16:12;22.10;58.00
38263;DHT22;24054;50.128;19.730;2023-04-25T14:18:40;22.10;57.80
38263;DHT22;24054;50.128;19.730;2023-04-25T14:21:07;22.00;57.80
38263;DHT22;24054;50.128;19.730;2023-04-25T14:23:35;22.00;57.80
38263;DHT22;24054;50.128;19.730;2023-04-25T14:26:02;22.10;57.80
38263;DHT22;24054;50.128;19.730;2023-04-25T14:28:29;22.00;57.80
38263;DHT22;24054;50.128;19.730;2023-04-25T14:30:56;22.10;58.00
38263;DHT22;24054;50.128;19.730;2023-04-25T14:33:23;22.10;58.00
38263;DHT22;24054;50.128;19.730;2023-04-25T14:35:54;22.10;58.00
38263;DHT22;24054;50.128;19.730;2023-04-25T14:38:22;22.10;58.20
38263;DHT22;24054;50.128;19.730;2023-04-25T14:40:51;22.00;58.70
38263;DHT22;24054;50.128;19.730;2023-04-25T14:43:19;22.00;58.00
38263;DHT22;24054;50.128;19.730;2023-04-25T14:45:46;22.00;58.20
38263;DHT22;24054;50.128;19.730;2023-04-25T14:48:13;22.10;58.10
38263;DHT22;24054;50.128;19.730;2023-04-25T14:50:40;22.00;58.00
38263;DHT22;24054;50.128;19.730;2023-04-25T14:53:09;22.00;58.20
38263;DHT22;24054;50.128;19.730;2023-04-25T14:55:36;22.00;58.20
38263;DHT22;24054;50.128;19.730;2023-04-25T14:58:03;22.00;58.10
38263;DHT22;24054;50.128;19.730;2023-04-25T15:00:31;22.00;58.40
38263;DHT22;24054;50.128;19.730;2023-04-25T15:02:59;22.10;58.30
38263;DHT22;24054;50.128;19.730;2023-04-25T15:05:26;22.10;58.30
38263;DHT22;24054;50.128;19.730;2023-04-25T15:07:54;22.10;58.20
38263;DHT22;24054;50.128;19.730;2023-04-25T15:10:24;22.10;58.20
38263;DHT22;24054;50.128;19.730;2023-04-25T15:12:51;22.10;58.20
38263;DHT22;24054;50.128;19.730;2023-04-25T15:15:19;22.10;58.00
38263;DHT22;24054;50.128;19.730;2023-04-25T15:17:46;22.10;58.10
38263;DHT22;24054;50.128;19.730;2023-04-25T15:20:13;22.10;58.10